sensor_id;sensor_type;location;lat;lon;timestamp;temperature;humidity
53711;DHT22;39605;52.704;6.752;2023-04-03T00:00:56;2.90;21.70
53711;DHT22;39605;52.704;6.752;2023-04-03T00:03:21;2.90;25.10
53711;DHT22;39605;52.704;6.752;2023-04-03T00:05:47;2.90;32.10
53711;DHT22;39605;52.704;6.752;2023-04-03T00:08:13;2.90;31.90
53711;DHT22;39605;52.704;6.752;2023-04-03T00:10:39;2.80;27.60
53711;DHT22;39605;52.704;6.752;2023-04-03T00:13:05;2.80;30.70
53711;DHT22;39605;52.704;6.752;2023-04-03T00:15:32;2.80;29.60
53711;DHT22;39605;52.704;6.752;2023-04-03T00:17:57;2.80;35.70
53711;DHT22;39605;52.704;6.752;2023-04-03T00:20:23;2.80;33.70
53711;DHT22;39605;52.704;6.752;2023-04-03T00:22:49;2.70;36.30
53711;DHT22;39605;52.704;6.752;2023-04-03T00:25:14;2.80;35.50
53711;DHT22;39605;52.704;6.752;2023-04-03T00:27:40;2.80;36.90
53711;DHT22;39605;52.704;6.752;2023-04-03T00:30:08;2.80;34.10
53711;DHT22;39605;52.704;6.752;2023-04-03T00:32:36;2.70;32.90
53711;DHT22;39605;52.704;6.752;2023-04-03T00:35:02;2.60;33.60
53711;DHT22;39605;52.704;6.752;2023-04-03T00:37:28;2.60;45.20
53711;DHT22;39605;52.704;6.752;2023-04-03T00:39:53;2.80;44.90
53711;DHT22;39605;52.704;6.752;2023-04-03T00:42:19;2.60;43.10
53711;DHT22;39605;52.704;6.752;2023-04-03T00:47:12;2.70;41.40
53711;DHT22;39605;52.704;6.752;2023-04-03T00:49:38;2.60;44.00
53711;DHT22;39605;52.704;6.752;2023-04-03T00:52:07;2.60;46.90
53711;DHT22;39605;52.704;6.752;2023-04-03T00:54:35;2.60;49.80
53711;DHT22;39605;52.704;6.752;2023-04-03T00:57:02;2.60;47.60
53711;DHT22;39605;52.704;6.752;2023-04-03T00:59:33;2.60;50.60
53711;DHT22;39605;52.704;6.752;2023-04-03T01:01:59;2.60;48.00
53711;DHT22;39605;52.704;6.752;2023-04-03T01:07:02;2.50;49.90
53711;DHT22;39605;52.704;6.752;2023-04-03T01:09:28;2.50;56.40
53711;DHT22;39605;52.704;6.752;2023-04-03T01:11:54;2.50;54.60
53711;DHT22;39605;52.704;6.752;2023-04-03T01:14:37;2.40;54.40
53711;DHT22;39605;52.704;6.752;2023-04-03T01:17:03;2.40;53.70
53711;DHT22;39605;52.704;6.752;2023-04-03T01:19:29;2.40;56.70
53711;DHT22;39605;52.704;6.752;2023-04-03T01:22:15;2.30;59.60
53711;DHT22;39605;52.704;6.752;2023-04-03T01:24:44;2.30;55.40
53711;DHT22;39605;52.704;6.752;2023-04-03T01:27:12;2.20;59.70
53711;DHT22;39605;52.704;6.752;2023-04-03T01:29:38;2.20;57.20
53711;DHT22;39605;52.704;6.752;2023-04-03T01:32:04;2.20;55.70
53711;DHT22;39605;52.704;6.752;2023-04-03T01:34:31;2.20;64.40
53711;DHT22;39605;52.704;6.752;2023-04-03T01:36:57;2.10;63.50
53711;DHT22;39605;52.704;6.752;2023-04-03T01:39:23;2.10;64.90
53711;DHT22;39605;52.704;6.752;2023-04-03T01:41:49;2.10;66.50
53711;DHT22;39605;52.704;6.752;2023-04-03T01:44:15;2.10;64.00
53711;DHT22;39605;52.704;6.752;2023-04-03T01:46:41;2.10;66.20
53711;DHT22;39605;52.704;6.752;2023-04-03T01:49:07;2.10;66.40
53711;DHT22;39605;52.704;6.752;2023-04-03T01:51:33;2.10;65.80
53711;DHT22;39605;52.704;6.752;2023-04-03T01:53:59;2.10;65.90
53711;DHT22;39605;52.704;6.752;2023-04-03T01:56:25;2.00;67.40
53711;DHT22;39605;52.704;6.752;2023-04-03T01:58:50;2.00;68.60
53711;DHT22;39605;52.704;6.752;2023-04-03T02:01:17;2.00;65.40
53711;DHT22;39605;52.704;6.752;2023-04-03T02:03:43;1.90;71.30
53711;DHT22;39605;52.704;6.752;2023-04-03T02:06:09;1.90;70.40
53711;DHT22;39605;52.704;6.752;2023-04-03T02:08:34;1.90;69.80
53711;DHT22;39605;52.704;6.752;2023-04-03T02:11:00;1.80;72.70
53711;DHT22;39605;52.704;6.752;2023-04-03T02:13:26;1.80;71.80
53711;DHT22;39605;52.704;6.752;2023-04-03T02:15:52;1.80;70.80
53711;DHT22;39605;52.704;6.752;2023-04-03T02:18:17;1.80;70.70
53711;DHT22;39605;52.704;6.752;2023-04-03T02:20:43;1.80;70.20
53711;DHT22;39605;52.704;6.752;2023-04-03T02:23:09;1.70;70.30
53711;DHT22;39605;52.704;6.752;2023-04-03T02:25:35;1.60;72.50
53711;DHT22;39605;52.704;6.752;2023-04-03T02:28:01;1.60;75.20
53711;DHT22;39605;52.704;6.752;2023-04-03T02:30:27;1.60;72.30
53711;DHT22;39605;52.704;6.752;2023-04-03T02:32:52;1.50;76.20
53711;DHT22;39605;52.704;6.752;2023-04-03T02:35:19;1.50;73.90
53711;DHT22;39605;52.704;6.752;2023-04-03T02:37:45;1.50;74.50
53711;DHT22;39605;52.704;6.752;2023-04-03T02:40:11;1.40;73.30
53711;DHT22;39605;52.704;6.752;2023-04-03T02:42:37;1.40;75.20
53711;DHT22;39605;52.704;6.752;2023-04-03T02:45:03;1.50;76.50
53711;DHT22;39605;52.704;6.752;2023-04-03T02:47:29;1.40;76.70
53711;DHT22;39605;52.704;6.752;2023-04-03T02:49:55;1.40;78.00
53711;DHT22;39605;52.704;6.752;2023-04-03T02:52:20;1.40;78.50
53711;DHT22;39605;52.704;6.752;2023-04-03T02:54:46;1.40;81.20
53711;DHT22;39605;52.704;6.752;2023-04-03T02:57:12;1.30;79.00
53711;DHT22;39605;52.704;6.752;2023-04-03T02:59:38;1.30;78.10
53711;DHT22;39605;52.704;6.752;2023-04-03T03:02:08;1.30;78.10
53711;DHT22;39605;52.704;6.752;2023-04-03T03:04:34;1.30;78.40
53711;DHT22;39605;52.704;6.752;2023-04-03T03:07:00;1.30;82.60
53711;DHT22;39605;52.704;6.752;2023-04-03T03:09:25;1.20;80.70
53711;DHT22;39605;52.704;6.752;2023-04-03T03:11:52;1.20;80.70
53711;DHT22;39605;52.704;6.752;2023-04-03T03:14:17;1.10;81.10
53711;DHT22;39605;52.704;6.752;2023-04-03T03:16:43;1.30;81.50
53711;DHT22;39605;52.704;6.752;2023-04-03T03:19:09;1.10;79.60
53711;DHT22;39605;52.704;6.752;2023-04-03T03:21:35;1.10;80.60
53711;DHT22;39605;52.704;6.752;2023-04-03T03:24:01;1.10;80.70
53711;DHT22;39605;52.704;6.752;2023-04-03T03:26:27;1.00;78.80
53711;DHT22;39605;52.704;6.752;2023-04-03T03:28:52;1.10;80.90
53711;DHT22;39605;52.704;6.752;2023-04-03T03:31:18;1.00;84.10
53711;DHT22;39605;52.704;6.752;2023-04-03T03:33:44;1.00;84.80
53711;DHT22;39605;52.704;6.752;2023-04-03T03:36:10;1.00;84.80
53711;DHT22;39605;52.704;6.752;2023-04-03T03:38:36;1.00;83.50
53711;DHT22;39605;52.704;6.752;2023-04-03T03:41:02;1.00;80.80
53711;DHT22;39605;52.704;6.752;2023-04-03T03:43:28;1.00;81.60
53711;DHT22;39605;52.704;6.752;2023-04-03T03:45:54;1.00;84.20
53711;DHT22;39605;52.704;6.752;2023-04-03T03:48:21;0.90;83.30
53711;DHT22;39605;52.704;6.752;2023-04-03T03:50:48;0.90;84.50
53711;DHT22;39605;52.704;6.752;2023-04-03T03:53:14;0.90;84.00
53711;DHT22;39605;52.704;6.752;2023-04-03T03:55:40;0.80;84.20
53711;DHT22;39605;52.704;6.752;2023-04-03T03:58:06;0.80;84.50
53711;DHT22;39605;52.704;6.752;2023-04-03T04:00:32;0.80;82.60
53711;DHT22;39605;52.704;6.752;2023-04-03T04:02:58;0.80;82.60
53711;DHT22;39605;52.704;6.752;2023-04-03T04:05:24;0.80;86.60
53711;DHT22;39605;52.704;6.752;2023-04-03T04:07:49;0.80;83.70
53711;DHT22;39605;52.704;6.752;2023-04-03T04:10:16;0.80;85.60
53711;DHT22;39605;52.704;6.752;2023-04-03T04:12:42;0.80;88.60
53711;DHT22;39605;52.704;6.752;2023-04-03T04:15:08;0.80;88.70
53711;DHT22;39605;52.704;6.752;2023-04-03T04:17:34;0.80;88.00
53711;DHT22;39605;52.704;6.752;2023-04-03T04:20:01;1.00;85.20
53711;DHT22;39605;52.704;6.752;2023-04-03T04:22:28;0.80;87.20
53711;DHT22;39605;52.704;6.752;2023-04-03T04:24:53;0.70;89.80
53711;DHT22;39605;52.704;6.752;2023-04-03T04:27:19;0.70;87.40
53711;DHT22;39605;52.704;6.752;2023-04-03T04:29:45;0.70;86.70
53711;DHT22;39605;52.704;6.752;2023-04-03T04:32:10;0.70;90.20
53711;DHT22;39605;52.704;6.752;2023-04-03T04:34:36;0.70;89.70
53711;DHT22;39605;52.704;6.752;2023-04-03T04:37:02;0.70;90.00
53711;DHT22;39605;52.704;6.752;2023-04-03T04:39:27;0.60;90.40
53711;DHT22;39605;52.704;6.752;2023-04-03T04:41:53;0.60;87.30
53711;DHT22;39605;52.704;6.752;2023-04-03T04:44:19;0.60;91.10
53711;DHT22;39605;52.704;6.752;2023-04-03T04:46:45;0.50;91.50
53711;DHT22;39605;52.704;6.752;2023-04-03T04:49:11;0.50;91.20
53711;DHT22;39605;52.704;6.752;2023-04-03T04:51:36;0.50;91.30
53711;DHT22;39605;52.704;6.752;2023-04-03T04:54:02;0.50;91.20
53711;DHT22;39605;52.704;6.752;2023-04-03T04:56:28;0.50;91.20
53711;DHT22;39605;52.704;6.752;2023-04-03T04:58:53;0.50;90.90
53711;DHT22;39605;52.704;6.752;2023-04-03T05:01:19;0.40;89.00
53711;DHT22;39605;52.704;6.752;2023-04-03T05:03:45;0.40;87.10
53711;DHT22;39605;52.704;6.752;2023-04-03T05:06:11;0.40;89.10
53711;DHT22;39605;52.704;6.752;2023-04-03T05:08:37;0.30;87.20
53711;DHT22;39605;52.704;6.752;2023-04-03T05:11:03;0.30;88.20
53711;DHT22;39605;52.704;6.752;2023-04-03T05:13:29;0.30;87.50
53711;DHT22;39605;52.704;6.752;2023-04-03T05:15:54;0.30;86.80
53711;DHT22;39605;52.704;6.752;2023-04-03T05:18:20;0.40;85.90
53711;DHT22;39605;52.704;6.752;2023-04-03T05:20:48;0.60;86.60
53711;DHT22;39605;52.704;6.752;2023-04-03T05:23:14;0.40;91.10
53711;DHT22;39605;52.704;6.752;2023-04-03T05:25:40;0.40;90.20
53711;DHT22;39605;52.704;6.752;2023-04-03T05:28:06;0.50;89.40
53711;DHT22;39605;52.704;6.752;2023-04-03T05:30:32;0.40;89.00
53711;DHT22;39605;52.704;6.752;2023-04-03T05:32:59;0.40;89.20
53711;DHT22;39605;52.704;6.752;2023-04-03T05:35:25;0.40;87.40
53711;DHT22;39605;52.704;6.752;2023-04-03T05:37:50;0.40;88.60
53711;DHT22;39605;52.704;6.752;2023-04-03T05:40:16;0.50;87.50
53711;DHT22;39605;52.704;6.752;2023-04-03T05:42:43;0.50;89.70
53711;DHT22;39605;52.704;6.752;2023-04-03T05:45:10;0.50;90.10
53711;DHT22;39605;52.704;6.752;2023-04-03T05:47:35;0.60;91.10
53711;DHT22;39605;52.704;6.752;2023-04-03T05:50:01;0.70;91.20
53711;DHT22;39605;52.704;6.752;2023-04-03T05:52:30;0.80;90.60
53711;DHT22;39605;52.704;6.752;2023-04-03T05:54:57;1.00;86.80
53711;DHT22;39605;52.704;6.752;2023-04-03T05:57:23;0.90;88.70
53711;DHT22;39605;52.704;6.752;2023-04-03T05:59:49;0.90;86.50
53711;DHT22;39605;52.704;6.752;2023-04-03T06:02:18;1.00;87.50
53711;DHT22;39605;52.704;6.752;2023-04-03T06:04:45;1.20;90.30
53711;DHT22;39605;52.704;6.752;2023-04-03T06:07:13;1.50;89.60
53711;DHT22;39605;52.704;6.752;2023-04-03T06:09:39;1.80;87.70
53711;DHT22;39605;52.704;6.752;2023-04-03T06:12:05;2.10;77.10
53711;DHT22;39605;52.704;6.752;2023-04-03T06:14:31;2.50;72.90
53711;DHT22;39605;52.704;6.752;2023-04-03T06:16:57;2.30;72.00
53711;DHT22;39605;52.704;6.752;2023-04-03T06:19:23;2.20;66.80
53711;DHT22;39605;52.704;6.752;2023-04-03T06:21:48;2.30;66.70
53711;DHT22;39605;52.704;6.752;2023-04-03T06:24:16;2.20;66.80
53711;DHT22;39605;52.704;6.752;2023-04-03T06:26:42;2.20;68.30
53711;DHT22;39605;52.704;6.752;2023-04-03T06:29:08;2.30;70.80
53711;DHT22;39605;52.704;6.752;2023-04-03T06:31:34;2.60;77.60
53711;DHT22;39605;52.704;6.752;2023-04-03T06:34:02;3.10;70.20
53711;DHT22;39605;52.704;6.752;2023-04-03T06:36:28;3.40;55.10
53711;DHT22;39605;52.704;6.752;2023-04-03T06:38:55;3.80;56.90
53711;DHT22;39605;52.704;6.752;2023-04-03T06:41:21;4.20;41.50
53711;DHT22;39605;52.704;6.752;2023-04-03T06:43:47;4.70;26.40
53711;DHT22;39605;52.704;6.752;2023-04-03T06:46:19;5.40;26.70
53711;DHT22;39605;52.704;6.752;2023-04-03T06:48:45;5.90;4.50
53711;DHT22;39605;52.704;6.752;2023-04-03T06:51:22;6.10;1.00
53711;DHT22;39605;52.704;6.752;2023-04-03T06:53:50;6.50;1.00
53711;DHT22;39605;52.704;6.752;2023-04-03T06:56:17;6.80;1.00
53711;DHT22;39605;52.704;6.752;2023-04-03T06:58:43;7.10;1.00
53711;DHT22;39605;52.704;6.752;2023-04-03T07:01:11;7.40;1.00
53711;DHT22;39605;52.704;6.752;2023-04-03T07:03:37;7.90;1.00
53711;DHT22;39605;52.704;6.752;2023-04-03T07:06:05;7.80;99.90
53711;DHT22;39605;52.704;6.752;2023-04-03T07:08:32;7.50;99.90
53711;DHT22;39605;52.704;6.752;2023-04-03T07:10:58;7.90;99.90
53711;DHT22;39605;52.704;6.752;2023-04-03T07:13:25;8.40;99.90
53711;DHT22;39605;52.704;6.752;2023-04-03T07:15:50;8.40;1.00
53711;DHT22;39605;52.704;6.752;2023-04-03T07:18:16;8.70;1.00
53711;DHT22;39605;52.704;6.752;2023-04-03T07:20:45;9.10;1.00
53711;DHT22;39605;52.704;6.752;2023-04-03T07:23:11;9.40;99.90
53711;DHT22;39605;52.704;6.752;2023-04-03T07:25:42;9.50;99.90
53711;DHT22;39605;52.704;6.752;2023-04-03T07:28:07;10.00;99.90
53711;DHT22;39605;52.704;6.752;2023-04-03T07:30:34;10.20;99.90
53711;DHT22;39605;52.704;6.752;2023-04-03T07:33:00;10.90;22.50
53711;DHT22;39605;52.704;6.752;2023-04-03T07:35:26;11.80;87.20
53711;DHT22;39605;52.704;6.752;2023-04-03T07:37:52;12.40;90.00
53711;DHT22;39605;52.704;6.752;2023-04-03T07:40:18;12.60;30.40
53711;DHT22;39605;52.704;6.752;2023-04-03T07:42:44;12.40;99.90
53711;DHT22;39605;52.704;6.752;2023-04-03T07:45:10;12.40;99.90
53711;DHT22;39605;52.704;6.752;2023-04-03T07:47:36;12.60;99.90
53711;DHT22;39605;52.704;6.752;2023-04-03T07:50:02;12.70;45.60
53711;DHT22;39605;52.704;6.752;2023-04-03T07:52:27;12.50;1.00
53711;DHT22;39605;52.704;6.752;2023-04-03T07:54:53;12.50;1.00
53711;DHT22;39605;52.704;6.752;2023-04-03T07:57:19;11.80;1.00
53711;DHT22;39605;52.704;6.752;2023-04-03T07:59:44;11.50;1.00
53711;DHT22;39605;52.704;6.752;2023-04-03T08:02:10;10.70;1.00
53711;DHT22;39605;52.704;6.752;2023-04-03T08:04:36;10.30;1.00
53711;DHT22;39605;52.704;6.752;2023-04-03T08:07:02;9.80;1.00
53711;DHT22;39605;52.704;6.752;2023-04-03T08:09:28;9.40;1.00
53711;DHT22;39605;52.704;6.752;2023-04-03T08:11:54;9.00;1.00
53711;DHT22;39605;52.704;6.752;2023-04-03T08:14:20;8.80;34.50
53711;DHT22;39605;52.704;6.752;2023-04-03T08:16:47;8.50;1.00
53711;DHT22;39605;52.704;6.752;2023-04-03T08:19:14;8.40;80.50
53711;DHT22;39605;52.704;6.752;2023-04-03T08:21:41;8.20;99.90
53711;DHT22;39605;52.704;6.752;2023-04-03T08:24:08;8.10;99.90
53711;DHT22;39605;52.704;6.752;2023-04-03T08:26:34;8.00;99.90
53711;DHT22;39605;52.704;6.752;2023-04-03T08:29:00;7.80;99.90
53711;DHT22;39605;52.704;6.752;2023-04-03T08:31:26;7.60;99.90
53711;DHT22;39605;52.704;6.752;2023-04-03T08:33:52;7.40;46.00
53711;DHT22;39605;52.704;6.752;2023-04-03T08:36:26;7.30;39.40
53711;DHT22;39605;52.704;6.752;2023-04-03T08:38:54;7.30;73.40
53711;DHT22;39605;52.704;6.752;2023-04-03T08:41:41;7.20;7.40
53711;DHT22;39605;52.704;6.752;2023-04-03T08:49:37;7.30;93.20
53711;DHT22;39605;52.704;6.752;2023-04-03T08:52:11;7.30;61.00
53711;DHT22;39605;52.704;6.752;2023-04-03T08:54:58;7.40;3.00
53711;DHT22;39605;52.704;6.752;2023-04-03T08:57:40;7.60;93.90
53711;DHT22;39605;52.704;6.752;2023-04-03T09:00:26;7.70;6.00
53711;DHT22;39605;52.704;6.752;2023-04-03T09:02:55;8.00;28.20
53711;DHT22;39605;52.704;6.752;2023-04-03T09:05:57;8.20;14.90
53711;DHT22;39605;52.704;6.752;2023-04-03T09:11:13;8.50;1.00
53711;DHT22;39605;52.704;6.752;2023-04-03T09:13:59;8.50;1.00
53711;DHT22;39605;52.704;6.752;2023-04-03T09:21:57;9.00;1.00
53711;DHT22;39605;52.704;6.752;2023-04-03T09:24:24;9.20;99.90
53711;DHT22;39605;52.704;6.752;2023-04-03T09:26:56;9.20;99.90
53711;DHT22;39605;52.704;6.752;2023-04-03T09:29:25;9.20;99.90
53711;DHT22;39605;52.704;6.752;2023-04-03T09:32:02;9.10;99.90
53711;DHT22;39605;52.704;6.752;2023-04-03T09:34:32;9.10;99.90
53711;DHT22;39605;52.704;6.752;2023-04-03T09:37:02;9.30;99.90
53711;DHT22;39605;52.704;6.752;2023-04-03T09:39:49;9.50;99.90
53711;DHT22;39605;52.704;6.752;2023-04-03T09:44:54;9.80;99.90
53711;DHT22;39605;52.704;6.752;2023-04-03T09:47:28;9.70;99.90
53711;DHT22;39605;52.704;6.752;2023-04-03T09:50:17;9.80;99.90
53711;DHT22;39605;52.704;6.752;2023-04-03T09:52:48;9.80;99.90
53711;DHT22;39605;52.704;6.752;2023-04-03T09:55:19;10.00;99.90
53711;DHT22;39605;52.704;6.752;2023-04-03T09:57:48;10.10;99.90
53711;DHT22;39605;52.704;6.752;2023-04-03T10:00:22;10.20;99.90
53711;DHT22;39605;52.704;6.752;2023-04-03T10:02:52;10.20;99.90
53711;DHT22;39605;52.704;6.752;2023-04-03T10:05:38;10.10;99.90
53711;DHT22;39605;52.704;6.752;2023-04-03T10:10:45;10.20;99.90
53711;DHT22;39605;52.704;6.752;2023-04-03T10:13:17;10.30;99.90
53711;DHT22;39605;52.704;6.752;2023-04-03T10:18:29;10.50;99.90
53711;DHT22;39605;52.704;6.752;2023-04-03T10:21:10;10.40;86.80
53711;DHT22;39605;52.704;6.752;2023-04-03T10:29:24;10.90;98.40
53711;DHT22;39605;52.704;6.752;2023-04-03T10:34:35;10.70;39.90
53711;DHT22;39605;52.704;6.752;2023-04-03T10:37:24;10.60;21.20
53711;DHT22;39605;52.704;6.752;2023-04-03T10:43:08;10.60;2.00
53711;DHT22;39605;52.704;6.752;2023-04-03T10:45:52;10.70;1.00
53711;DHT22;39605;52.704;6.752;2023-04-03T10:48:31;10.70;1.00
53711;DHT22;39605;52.704;6.752;2023-04-03T10:54:36;11.00;1.00
53711;DHT22;39605;52.704;6.752;2023-04-03T10:57:06;11.00;1.00
53711;DHT22;39605;52.704;6.752;2023-04-03T10:59:56;11.20;1.00
53711;DHT22;39605;52.704;6.752;2023-04-03T11:02:41;11.20;1.00
53711;DHT22;39605;52.704;6.752;2023-04-03T11:05:36;11.10;1.00
53711;DHT22;39605;52.704;6.752;2023-04-03T11:08:19;11.40;1.00
53711;DHT22;39605;52.704;6.752;2023-04-03T11:10:50;11.60;1.00
53711;DHT22;39605;52.704;6.752;2023-04-03T11:13:30;11.70;1.00
53711;DHT22;39605;52.704;6.752;2023-04-03T11:15:58;11.50;1.00
53711;DHT22;39605;52.704;6.752;2023-04-03T11:18:46;11.30;1.00
53711;DHT22;39605;52.704;6.752;2023-04-03T11:21:47;11.60;1.00
53711;DHT22;39605;52.704;6.752;2023-04-03T11:24:23;11.50;1.00
53711;DHT22;39605;52.704;6.752;2023-04-03T11:26:51;11.20;1.00
53711;DHT22;39605;52.704;6.752;2023-04-03T11:29:21;11.40;1.00
53711;DHT22;39605;52.704;6.752;2023-04-03T11:34:33;11.40;1.00
53711;DHT22;39605;52.704;6.752;2023-04-03T11:37:05;11.60;1.00
53711;DHT22;39605;52.704;6.752;2023-04-03T11:39:37;11.40;1.00
53711;DHT22;39605;52.704;6.752;2023-04-03T11:44:51;11.20;1.00
53711;DHT22;39605;52.704;6.752;2023-04-03T11:47:51;11.20;1.00
53711;DHT22;39605;52.704;6.752;2023-04-03T12:30:29;12.00;1.00
53711;DHT22;39605;52.704;6.752;2023-04-03T12:33:57;11.80;1.00
53711;DHT22;39605;52.704;6.752;2023-04-03T12:38:33;11.60;1.00
53711;DHT22;39605;52.704;6.752;2023-04-03T12:46:48;11.60;1.00
53711;DHT22;39605;52.704;6.752;2023-04-03T12:51:54;11.90;1.00
53711;DHT22;39605;52.704;6.752;2023-04-03T12:54:36;11.80;1.00
53711;DHT22;39605;52.704;6.752;2023-04-03T12:57:16;11.70;1.00
53711;DHT22;39605;52.704;6.752;2023-04-03T12:59:42;11.70;1.00
53711;DHT22;39605;52.704;6.752;2023-04-03T13:02:31;11.70;1.00
53711;DHT22;39605;52.704;6.752;2023-04-03T13:05:05;11.70;1.00
53711;DHT22;39605;52.704;6.752;2023-04-03T13:07:34;11.80;1.00
53711;DHT22;39605;52.704;6.752;2023-04-03T13:10:15;11.70;1.00
53711;DHT22;39605;52.704;6.752;2023-04-03T13:13:08;11.90;1.00
53711;DHT22;39605;52.704;6.752;2023-04-03T13:15:43;12.20;1.00
53711;DHT22;39605;52.704;6.752;2023-04-03T13:18:31;12.30;1.00
53711;DHT22;39605;52.704;6.752;2023-04-03T13:21:18;12.30;1.00
53711;DHT22;39605;52.704;6.752;2023-04-03T13:23:47;12.10;1.00
53711;DHT22;39605;52.704;6.752;2023-04-03T13:26:17;12.10;1.00
53711;DHT22;39605;52.704;6.752;2023-04-03T13:28:44;12.10;1.00
53711;DHT22;39605;52.704;6.752;2023-04-03T13:36:45;12.20;1.00
53711;DHT22;39605;52.704;6.752;2023-04-03T13:41:41;12.00;1.00
53711;DHT22;39605;52.704;6.752;2023-04-03T13:46:59;12.10;1.00
53711;DHT22;39605;52.704;6.752;2023-04-03T13:49:39;12.00;1.00
53711;DHT22;39605;52.704;6.752;2023-04-03T13:52:30;12.00;1.00
53711;DHT22;39605;52.704;6.752;2023-04-03T13:55:01;12.20;1.00
53711;DHT22;39605;52.704;6.752;2023-04-03T13:57:27;12.20;1.00
53711;DHT22;39605;52.704;6.752;2023-04-03T13:59:53;12.40;1.00
53711;DHT22;39605;52.704;6.752;2023-04-03T14:02:21;12.20;1.00
53711;DHT22;39605;52.704;6.752;2023-04-03T14:04:56;12.20;1.00
53711;DHT22;39605;52.704;6.752;2023-04-03T14:07:25;12.10;1.00
53711;DHT22;39605;52.704;6.752;2023-04-03T14:09:52;12.20;1.00
53711;DHT22;39605;52.704;6.752;2023-04-03T14:12:27;12.30;1.00
53711;DHT22;39605;52.704;6.752;2023-04-03T14:14:55;12.20;1.00
53711;DHT22;39605;52.704;6.752;2023-04-03T14:17:24;12.20;1.00
53711;DHT22;39605;52.704;6.752;2023-04-03T14:19:50;12.10;1.00
53711;DHT22;39605;52.704;6.752;2023-04-03T14:22:26;12.10;1.00
53711;DHT22;39605;52.704;6.752;2023-04-03T14:24:53;12.10;1.00
53711;DHT22;39605;52.704;6.752;2023-04-03T14:27:37;12.10;1.00
53711;DHT22;39605;52.704;6.752;2023-04-03T14:30:07;12.10;1.00
53711;DHT22;39605;52.704;6.752;2023-04-03T14:32:34;11.90;1.00
53711;DHT22;39605;52.704;6.752;2023-04-03T14:35:00;12.10;1.00
53711;DHT22;39605;52.704;6.752;2023-04-03T14:37:28;12.10;1.00
53711;DHT22;39605;52.704;6.752;2023-04-03T14:39:55;12.30;1.00
53711;DHT22;39605;52.704;6.752;2023-04-03T14:42:25;12.30;1.00
53711;DHT22;39605;52.704;6.752;2023-04-03T14:44:52;12.40;1.00
53711;DHT22;39605;52.704;6.752;2023-04-03T14:47:24;12.30;1.00
53711;DHT22;39605;52.704;6.752;2023-04-03T14:49:50;12.20;1.00
53711;DHT22;39605;52.704;6.752;2023-04-03T14:52:20;12.20;1.00
53711;DHT22;39605;52.704;6.752;2023-04-03T14:54:47;11.90;1.00
53711;DHT22;39605;52.704;6.752;2023-04-03T14:57:14;11.70;1.00
53711;DHT22;39605;52.704;6.752;2023-04-03T14:59:40;11.60;1.00
53711;DHT22;39605;52.704;6.752;2023-04-03T15:04:57;11.50;1.00
53711;DHT22;39605;52.704;6.752;2023-04-03T15:07:25;11.60;1.00
53711;DHT22;39605;52.704;6.752;2023-04-03T15:09:52;11.50;1.00
53711;DHT22;39605;52.704;6.752;2023-04-03T15:12:18;11.50;1.00
53711;DHT22;39605;52.704;6.752;2023-04-03T15:14:43;11.50;1.00
53711;DHT22;39605;52.704;6.752;2023-04-03T15:17:18;11.50;1.00
53711;DHT22;39605;52.704;6.752;2023-04-03T15:19:45;11.50;1.00
53711;DHT22;39605;52.704;6.752;2023-04-03T15:22:19;11.40;1.00
53711;DHT22;39605;52.704;6.752;2023-04-03T15:24:45;11.30;1.00
53711;DHT22;39605;52.704;6.752;2023-04-03T15:27:12;11.30;1.00
53711;DHT22;39605;52.704;6.752;2023-04-03T15:29:39;11.30;1.00
53711;DHT22;39605;52.704;6.752;2023-04-03T15:32:06;11.30;1.00
53711;DHT22;39605;52.704;6.752;2023-04-03T15:34:32;11.20;1.00
53711;DHT22;39605;52.704;6.752;2023-04-03T15:36:58;11.20;1.00
53711;DHT22;39605;52.704;6.752;2023-04-03T15:39:25;11.00;1.00
53711;DHT22;39605;52.704;6.752;2023-04-03T15:41:51;11.00;1.00
53711;DHT22;39605;52.704;6.752;2023-04-03T15:44:19;11.00;1.00
53711;DHT22;39605;52.704;6.752;2023-04-03T15:46:46;11.00;1.00
53711;DHT22;39605;52.704;6.752;2023-04-03T15:49:14;11.10;1.00
53711;DHT22;39605;52.704;6.752;2023-04-03T15:51:40;11.00;1.00
53711;DHT22;39605;52.704;6.752;2023-04-03T15:54:06;10.80;1.00
53711;DHT22;39605;52.704;6.752;2023-04-03T15:56:32;10.80;1.00
53711;DHT22;39605;52.704;6.752;2023-04-03T15:58:58;10.60;1.00
53711;DHT22;39605;52.704;6.752;2023-04-03T16:01:23;10.60;1.00
53711;DHT22;39605;52.704;6.752;2023-04-03T16:03:49;10.50;1.00
53711;DHT22;39605;52.704;6.752;2023-04-03T16:06:17;10.50;1.00
53711;DHT22;39605;52.704;6.752;2023-04-03T16:08:44;10.50;1.00
53711;DHT22;39605;52.704;6.752;2023-04-03T16:11:11;10.40;1.00
53711;DHT22;39605;52.704;6.752;2023-04-03T16:13:37;10.40;1.00
53711;DHT22;39605;52.704;6.752;2023-04-03T16:16:04;10.40;1.00
53711;DHT22;39605;52.704;6.752;2023-04-03T16:18:30;10.30;1.00
53711;DHT22;39605;52.704;6.752;2023-04-03T16:20:57;10.30;1.00
53711;DHT22;39605;52.704;6.752;2023-04-03T16:23:23;10.20;1.00
53711;DHT22;39605;52.704;6.752;2023-04-03T16:25:49;10.10;1.00
53711;DHT22;39605;52.704;6.752;2023-04-03T16:28:16;10.10;1.00
53711;DHT22;39605;52.704;6.752;2023-04-03T16:30:43;10.10;1.00
53711;DHT22;39605;52.704;6.752;2023-04-03T16:33:10;10.10;1.00
53711;DHT22;39605;52.704;6.752;2023-04-03T16:35:36;10.10;1.00
53711;DHT22;39605;52.704;6.752;2023-04-03T16:38:02;10.10;1.00
53711;DHT22;39605;52.704;6.752;2023-04-03T16:40:28;10.00;1.00
53711;DHT22;39605;52.704;6.752;2023-04-03T16:42:54;9.90;1.00
53711;DHT22;39605;52.704;6.752;2023-04-03T16:45:20;9.80;1.00
53711;DHT22;39605;52.704;6.752;2023-04-03T16:47:46;9.80;1.00
53711;DHT22;39605;52.704;6.752;2023-04-03T16:50:11;9.70;1.00
53711;DHT22;39605;52.704;6.752;2023-04-03T16:52:38;9.60;1.00
53711;DHT22;39605;52.704;6.752;2023-04-03T16:55:05;9.60;1.00
53711;DHT22;39605;52.704;6.752;2023-04-03T16:57:31;9.60;1.00
53711;DHT22;39605;52.704;6.752;2023-04-03T16:59:56;9.60;1.00
53711;DHT22;39605;52.704;6.752;2023-04-03T17:02:23;9.50;1.00
53711;DHT22;39605;52.704;6.752;2023-04-03T17:04:53;9.50;1.00
53711;DHT22;39605;52.704;6.752;2023-04-03T17:07:20;9.40;1.00
53711;DHT22;39605;52.704;6.752;2023-04-03T17:09:47;9.40;1.00
53711;DHT22;39605;52.704;6.752;2023-04-03T17:12:13;9.30;1.00
53711;DHT22;39605;52.704;6.752;2023-04-03T17:14:39;9.20;1.00
53711;DHT22;39605;52.704;6.752;2023-04-03T17:17:06;9.20;1.00
53711;DHT22;39605;52.704;6.752;2023-04-03T17:19:33;9.10;1.00
53711;DHT22;39605;52.704;6.752;2023-04-03T17:22:00;9.00;1.00
53711;DHT22;39605;52.704;6.752;2023-04-03T17:24:26;9.00;1.00
53711;DHT22;39605;52.704;6.752;2023-04-03T17:26:52;8.90;1.00
53711;DHT22;39605;52.704;6.752;2023-04-03T17:29:18;8.80;1.00
53711;DHT22;39605;52.704;6.752;2023-04-03T17:31:44;8.80;1.00
53711;DHT22;39605;52.704;6.752;2023-04-03T17:34:09;8.70;1.00
53711;DHT22;39605;52.704;6.752;2023-04-03T17:36:38;8.70;1.00
53711;DHT22;39605;52.704;6.752;2023-04-03T17:39:04;8.60;1.00
53711;DHT22;39605;52.704;6.752;2023-04-03T17:41:30;8.50;1.00
53711;DHT22;39605;52.704;6.752;2023-04-03T17:43:56;8.40;1.00
53711;DHT22;39605;52.704;6.752;2023-04-03T17:46:23;8.30;1.00
53711;DHT22;39605;52.704;6.752;2023-04-03T17:48:50;8.30;1.00